createdAt,value
2024-05-09T00:00:29.923Z,1102.73
2024-05-09T00:01:25.418Z,1104.00
2024-05-09T00:02:24.367Z,1102.73
2024-05-09T00:03:21.351Z,1104.00
2024-05-09T00:04:21.316Z,1104.00
2024-05-09T00:05:21.433Z,1104.00
2024-05-09T00:06:21.278Z,1104.00
2024-05-09T00:07:21.248Z,1104.00
2024-05-09T00:08:21.302Z,1104.00
2024-05-09T00:09:21.240Z,1104.00
2024-05-09T00:10:28.850Z,1104.00
2024-05-09T00:11:22.330Z,1104.00
2024-05-09T00:12:21.324Z,1104.00
2024-05-09T00:13:21.146Z,1104.00
2024-05-09T00:14:21.224Z,1104.00
2024-05-09T00:15:21.124Z,1104.00
2024-05-09T00:16:21.101Z,1104.00
2024-05-09T00:17:21.257Z,1104.00
2024-05-09T00:18:21.239Z,1104.00
2024-05-09T00:19:21.215Z,1104.00
2024-05-09T00:20:28.073Z,1104.00
2024-05-09T00:21:25.051Z,1104.00
2024-05-09T00:22:24.062Z,1104.00
2024-05-09T00:23:28.616Z,1104.00
2024-05-09T00:24:20.974Z,1104.00
2024-05-09T00:25:20.968Z,1104.00
2024-05-09T00:26:21.093Z,1104.00
2024-05-09T00:27:20.990Z,1104.00
2024-05-09T00:28:20.965Z,1102.73
2024-05-09T00:29:21.159Z,1102.73
2024-05-09T00:30:28.017Z,1102.73
2024-05-09T00:31:21.902Z,1102.73
2024-05-09T00:32:21.261Z,1102.73
2024-05-09T00:33:21.413Z,1102.73
2024-05-09T00:34:20.958Z,1102.73
2024-05-09T00:35:20.904Z,1102.73
2024-05-09T00:36:20.943Z,1102.73
2024-05-09T00:37:20.887Z,1102.73
2024-05-09T00:38:21.095Z,1102.73
2024-05-09T00:39:20.860Z,1102.73
2024-05-09T00:40:30.790Z,1102.73
2024-05-09T00:41:24.839Z,1102.73
2024-05-09T00:42:23.742Z,1102.73
2024-05-09T00:43:20.716Z,1102.73
2024-05-09T00:44:20.754Z,1102.73
2024-05-09T00:45:20.689Z,1102.73
2024-05-09T00:46:20.714Z,1102.73
2024-05-09T00:47:20.855Z,1102.73
2024-05-09T00:48:21.624Z,1102.73
2024-05-09T00:49:20.816Z,1102.73
2024-05-09T00:50:29.419Z,1102.73
2024-05-09T00:51:21.689Z,1102.73
2024-05-09T00:52:20.598Z,1102.73
2024-05-09T00:53:20.680Z,1102.73
2024-05-09T00:54:20.585Z,1102.73
2024-05-09T00:55:20.560Z,1102.73
2024-05-09T00:56:20.622Z,1102.73
2024-05-09T00:57:20.546Z,1102.73
2024-05-09T00:58:20.528Z,1102.73
2024-05-09T00:59:20.553Z,1102.73
2024-05-09T01:00:27.270Z,1102.73
2024-05-09T01:01:24.525Z,1102.73
2024-05-09T01:02:23.582Z,1102.73
2024-05-09T01:03:20.905Z,1102.73
2024-05-09T01:04:20.560Z,1102.73
2024-05-09T01:05:20.454Z,1102.73
2024-05-09T01:06:20.467Z,1102.73
2024-05-09T01:07:20.409Z,1102.73
2024-05-09T01:08:20.558Z,1102.73
2024-05-09T01:09:20.389Z,1102.73
2024-05-09T01:10:27.637Z,1102.73
2024-05-09T01:11:21.489Z,1102.73
2024-05-09T01:12:20.555Z,1102.73
2024-05-09T01:13:20.330Z,1102.73
2024-05-09T01:14:20.427Z,1102.73
2024-05-09T01:15:20.303Z,1102.73
2024-05-09T01:16:20.303Z,1102.73
2024-05-09T01:17:20.385Z,1102.73
2024-05-09T01:18:20.513Z,1102.73
2024-05-09T01:19:20.409Z,1102.73
2024-05-09T01:20:31.499Z,1101.46
2024-05-09T01:21:24.249Z,1101.46
2024-05-09T01:22:23.236Z,1101.46
2024-05-09T01:23:20.244Z,1101.46
2024-05-09T01:24:20.198Z,1101.46
2024-05-09T01:25:20.175Z,1101.46
2024-05-09T01:26:20.262Z,1101.46
2024-05-09T01:27:20.147Z,1101.46
2024-05-09T01:28:20.152Z,1101.46
2024-05-09T01:29:20.221Z,1101.46
2024-05-09T01:30:24.385Z,1101.46
2024-05-09T01:31:21.092Z,1101.46
2024-05-09T01:32:20.196Z,1101.46
2024-05-09T01:33:20.402Z,1101.46
2024-05-09T01:34:20.211Z,1101.46
2024-05-09T01:35:20.069Z,1101.46
2024-05-09T01:36:20.027Z,1101.46
2024-05-09T01:37:20.026Z,1101.46
2024-05-09T01:38:20.156Z,1101.46
2024-05-09T01:39:19.983Z,1101.46
2024-05-09T01:40:25.356Z,1101.46
2024-05-09T01:41:23.974Z,1101.46
2024-05-09T01:42:22.989Z,1101.46
2024-05-09T01:43:19.924Z,1101.46
2024-05-09T01:44:19.990Z,1101.46
2024-05-09T01:45:19.899Z,1101.46
2024-05-09T01:46:19.902Z,1101.46
2024-05-09T01:47:19.967Z,1101.46
2024-05-09T01:48:20.018Z,1101.46
2024-05-09T01:49:19.924Z,1101.46
2024-05-09T01:50:28.964Z,1101.46
2024-05-09T01:51:20.847Z,1101.46
2024-05-09T01:52:19.811Z,1101.46
2024-05-09T01:53:19.888Z,1101.46
2024-05-09T01:54:19.787Z,1101.46
2024-05-09T01:55:19.759Z,1100.18
2024-05-09T01:56:19.768Z,1101.46
2024-05-09T01:57:19.785Z,1101.46
2024-05-09T01:58:19.722Z,1101.46
2024-05-09T01:59:19.750Z,1101.46
2024-05-09T02:00:30.174Z,1101.46
2024-05-09T02:01:23.744Z,1101.46
2024-05-09T02:02:22.833Z,1101.46
2024-05-09T02:03:19.913Z,1101.46
2024-05-09T02:04:19.929Z,1101.46
2024-05-09T02:05:19.746Z,1101.46
2024-05-09T02:06:19.671Z,1101.46
2024-05-09T02:07:19.630Z,1101.46
2024-05-09T02:08:20.012Z,1101.46
2024-05-09T02:09:19.572Z,1101.46
2024-05-09T02:10:26.173Z,1101.46
2024-05-09T02:11:20.718Z,1101.46
2024-05-09T02:12:19.656Z,1101.46
2024-05-09T02:13:19.512Z,1101.46
2024-05-09T02:14:19.558Z,1101.46
2024-05-09T02:15:19.502Z,1101.46
2024-05-09T02:16:19.476Z,1101.46
2024-05-09T02:17:19.566Z,1101.46
2024-05-09T02:18:19.558Z,1101.46
2024-05-09T02:19:19.543Z,1101.46
2024-05-09T02:20:29.961Z,1101.46
2024-05-09T02:21:23.429Z,1101.46
2024-05-09T02:22:22.394Z,1101.46
2024-05-09T02:23:19.445Z,1101.46
2024-05-09T02:24:19.369Z,1101.46
2024-05-09T02:25:19.395Z,1101.46
2024-05-09T02:26:19.400Z,1101.46
2024-05-09T02:27:19.328Z,1101.46
2024-05-09T02:28:19.321Z,1101.46
2024-05-09T02:29:19.348Z,1101.46
2024-05-09T02:30:26.394Z,1101.46
2024-05-09T02:31:20.313Z,1101.46
2024-05-09T02:32:19.333Z,1101.46
2024-05-09T02:33:19.487Z,1101.46
2024-05-09T02:34:19.308Z,1101.46
2024-05-09T02:35:19.253Z,1101.46
2024-05-09T02:36:19.199Z,1101.46
2024-05-09T02:37:19.231Z,1101.46
2024-05-09T02:38:19.254Z,1101.46
2024-05-09T02:39:19.157Z,1101.46
2024-05-09T02:40:25.629Z,1100.18
2024-05-09T02:41:23.218Z,1100.18
2024-05-09T02:42:22.124Z,1100.18
2024-05-09T02:43:19.100Z,1100.18
2024-05-09T02:44:19.159Z,1100.18
2024-05-09T02:45:19.114Z,1100.18
2024-05-09T02:46:19.072Z,1100.18
2024-05-09T02:47:19.134Z,1100.18
2024-05-09T02:48:19.225Z,1100.18
2024-05-09T02:49:19.197Z,1100.18
2024-05-09T02:50:26.715Z,1100.18
2024-05-09T02:51:20.000Z,1100.18
2024-05-09T02:52:18.988Z,1100.18
2024-05-09T02:53:19.029Z,1100.18
2024-05-09T02:54:18.992Z,1100.18
2024-05-09T02:55:18.943Z,1100.18
2024-05-09T02:56:19.023Z,1100.18
2024-05-09T02:57:18.923Z,1100.18
2024-05-09T02:58:18.913Z,1100.18
2024-05-09T02:59:18.998Z,1100.18
2024-05-09T03:00:23.150Z,1100.18
2024-05-09T03:01:23.008Z,1100.18
2024-05-09T03:02:22.032Z,1100.18
2024-05-09T03:03:19.281Z,1100.18
2024-05-09T03:04:18.948Z,1100.18
2024-05-09T03:05:19.083Z,1100.18
2024-05-09T03:06:18.806Z,1100.18
2024-05-09T03:07:20.353Z,1100.18
2024-05-09T03:08:18.825Z,1100.18
2024-05-09T03:09:18.747Z,1100.18
2024-05-09T03:10:25.373Z,1100.18
2024-05-09T03:11:19.906Z,1100.18
2024-05-09T03:12:18.752Z,1100.18
2024-05-09T03:13:18.718Z,1100.18
2024-05-09T03:14:18.713Z,1100.18
2024-05-09T03:15:18.668Z,1100.18
2024-05-09T03:16:18.693Z,1100.18
2024-05-09T03:17:18.769Z,1100.18
2024-05-09T03:18:18.718Z,1100.18
2024-05-09T03:19:18.732Z,1100.18
2024-05-09T03:20:23.788Z,1100.18
2024-05-09T03:21:22.608Z,1100.18
2024-05-09T03:22:21.588Z,1100.18
2024-05-09T03:23:18.591Z,1100.18
2024-05-09T03:24:18.581Z,1100.18
2024-05-09T03:25:18.528Z,1100.18
2024-05-09T03:26:18.609Z,1100.18
2024-05-09T03:27:18.507Z,1100.18
2024-05-09T03:28:18.505Z,1100.18
2024-05-09T03:29:18.536Z,1100.18
2024-05-09T03:30:29.321Z,1100.18
2024-05-09T03:31:19.490Z,1100.18
2024-05-09T03:32:18.544Z,1100.18
2024-05-09T03:33:20.172Z,1100.18
2024-05-09T03:34:18.495Z,1100.18
2024-05-09T03:35:18.448Z,1100.18
2024-05-09T03:36:18.427Z,1100.18
2024-05-09T03:37:18.422Z,1100.18
2024-05-09T03:38:18.559Z,1100.18
2024-05-09T03:39:18.340Z,1100.18
2024-05-09T03:40:23.639Z,1100.18
2024-05-09T03:41:22.493Z,1100.18
2024-05-09T03:42:21.346Z,1100.18
2024-05-09T03:43:18.282Z,1100.18
2024-05-09T03:44:18.328Z,1100.18
2024-05-09T03:45:18.256Z,1100.18
2024-05-09T03:46:18.290Z,1100.18
2024-05-09T03:47:18.267Z,1100.18
2024-05-09T03:48:18.490Z,1100.18
2024-05-09T03:49:18.423Z,1101.46
2024-05-09T03:50:25.820Z,1100.18
2024-05-09T03:51:19.218Z,1101.46
2024-05-09T03:52:18.163Z,1101.46
2024-05-09T03:53:18.337Z,1101.46
2024-05-09T03:54:18.179Z,1101.46
2024-05-09T03:55:18.120Z,1101.46
2024-05-09T03:56:18.181Z,1101.46
2024-05-09T03:57:18.097Z,1101.46
2024-05-09T03:58:18.186Z,1101.46
2024-05-09T03:59:18.139Z,1101.46
2024-05-09T04:00:26.202Z,1101.46
2024-05-09T04:01:22.088Z,1101.46
2024-05-09T04:02:21.175Z,1101.46
2024-05-09T04:03:18.464Z,1101.46
2024-05-09T04:04:18.099Z,1101.46
2024-05-09T04:05:18.056Z,1101.46
2024-05-09T04:06:17.976Z,1101.46
2024-05-09T04:07:17.967Z,1101.46
2024-05-09T04:08:18.030Z,1101.46
2024-05-09T04:09:17.928Z,1101.46
2024-05-09T04:10:27.652Z,1101.46
2024-05-09T04:11:19.023Z,1101.46
2024-05-09T04:12:18.064Z,1101.46
2024-05-09T04:13:17.876Z,1101.46
2024-05-09T04:14:17.932Z,1101.46
2024-05-09T04:15:17.864Z,1101.46
2024-05-09T04:16:17.910Z,1102.73
2024-05-09T04:17:17.866Z,1102.73
2024-05-09T04:18:17.916Z,1102.73
2024-05-09T04:19:18.037Z,1102.73
2024-05-09T04:20:28.759Z,1102.73
2024-05-09T04:21:21.826Z,1102.73
2024-05-09T04:22:20.765Z,1104.00
2024-05-09T04:23:17.798Z,1104.00
2024-05-09T04:24:17.725Z,1104.00
2024-05-09T04:25:17.739Z,1105.28
2024-05-09T04:26:17.751Z,1105.28
2024-05-09T04:27:17.717Z,1105.28
2024-05-09T04:28:17.677Z,1106.55
2024-05-09T04:29:17.706Z,1106.55
2024-05-09T04:30:25.766Z,1106.55
2024-05-09T04:31:18.641Z,1106.55
2024-05-09T04:32:17.762Z,1106.55
2024-05-09T04:33:17.916Z,1106.55
2024-05-09T04:34:17.722Z,1106.55
2024-05-09T04:35:17.666Z,1107.82
2024-05-09T04:36:17.566Z,1107.82
2024-05-09T04:37:17.561Z,1107.82
2024-05-09T04:38:17.590Z,1107.82
2024-05-09T04:39:17.559Z,1107.82
2024-05-09T04:40:24.415Z,1107.82
2024-05-09T04:41:21.543Z,1107.82
2024-05-09T04:42:20.477Z,1107.82
2024-05-09T04:43:17.619Z,1107.82
2024-05-09T04:44:17.543Z,1107.82
2024-05-09T04:45:17.489Z,1107.82
2024-05-09T04:46:17.429Z,1107.82
2024-05-09T04:47:17.550Z,1107.82
2024-05-09T04:48:17.582Z,1107.82
2024-05-09T04:49:17.600Z,1107.82
2024-05-09T04:50:24.709Z,1107.82
2024-05-09T04:51:18.538Z,1107.82
2024-05-09T04:52:17.357Z,1107.82
2024-05-09T04:53:17.717Z,1107.82
2024-05-09T04:54:26.493Z,1107.82
2024-05-09T04:55:18.306Z,1107.82
2024-05-09T04:56:17.366Z,1107.82
2024-05-09T04:57:17.279Z,1107.82
2024-05-09T04:58:17.269Z,1107.82
2024-05-09T04:59:17.255Z,1107.83
2024-05-09T05:00:21.990Z,1107.83
2024-05-09T05:01:21.293Z,1107.83
2024-05-09T05:02:20.291Z,1107.83
2024-05-09T05:03:17.795Z,1107.83
2024-05-09T05:04:17.251Z,1107.83
2024-05-09T05:05:17.366Z,1107.83
2024-05-09T05:06:17.159Z,1107.83
2024-05-09T05:07:17.395Z,1107.83
2024-05-09T05:08:18.297Z,1107.83
2024-05-09T05:09:17.160Z,1107.83
2024-05-09T05:10:25.101Z,1107.83
2024-05-09T05:11:18.144Z,1107.83
2024-05-09T05:12:17.226Z,1107.83
2024-05-09T05:13:18.525Z,1107.83
2024-05-09T05:14:17.161Z,1107.83
2024-05-09T05:15:17.043Z,1107.83
2024-05-09T05:16:17.017Z,1107.83
2024-05-09T05:17:17.041Z,1107.83
2024-05-09T05:18:17.202Z,1107.83
2024-05-09T05:19:17.787Z,1107.83
2024-05-09T05:20:24.518Z,1107.83
2024-05-09T05:21:21.212Z,1107.83
2024-05-09T05:22:19.948Z,1107.83
2024-05-09T05:23:17.002Z,1107.40
2024-05-09T05:24:16.907Z,1103.38
2024-05-09T05:25:16.932Z,1097.91
2024-05-09T05:26:16.917Z,1089.00
2024-05-09T05:27:16.867Z,1080.92
2024-05-09T05:28:16.858Z,1074.36
2024-05-09T05:29:20.201Z,1071.20
2024-05-09T05:30:21.488Z,1063.95
2024-05-09T05:31:17.926Z,1057.42
2024-05-09T05:32:17.029Z,1051.69
2024-05-09T05:33:16.972Z,1047.81
2024-05-09T05:34:16.794Z,1040.18
2024-05-09T05:35:16.826Z,1031.33
2024-05-09T05:36:16.750Z,1023.49
2024-05-09T05:37:16.775Z,1019.78
2024-05-09T05:38:16.794Z,1016.75
2024-05-09T05:39:16.786Z,1012.69
2024-05-09T05:40:27.578Z,1015.33
2024-05-09T05:41:20.740Z,1015.59
2024-05-09T05:42:19.733Z,1016.28
2024-05-09T05:43:16.746Z,1004.40
2024-05-09T05:44:16.698Z,988.18
2024-05-09T05:45:16.630Z,974.43
2024-05-09T05:46:16.618Z,961.13
2024-05-09T05:47:16.713Z,953.27
2024-05-09T05:48:17.450Z,944.06
2024-05-09T05:49:16.701Z,941.38
2024-05-09T05:50:24.666Z,928.94
2024-05-09T05:51:17.683Z,929.28
2024-05-09T05:52:16.550Z,928.24
2024-05-09T05:53:16.655Z,924.73
2024-05-09T05:54:16.546Z,920.42
2024-05-09T05:55:16.500Z,916.29
2024-05-09T05:56:16.632Z,918.30
2024-05-09T05:57:16.526Z,909.97
2024-05-09T05:58:16.452Z,911.14
2024-05-09T05:59:16.482Z,910.31
2024-05-09T06:00:26.032Z,913.37
2024-05-09T06:01:20.463Z,901.51
2024-05-09T06:02:19.589Z,908.99
2024-05-09T06:03:16.528Z,912.66
2024-05-09T06:04:16.449Z,923.11
2024-05-09T06:05:16.420Z,941.40
2024-05-09T06:06:16.355Z,954.52
2024-05-09T06:07:16.332Z,992.98
2024-05-09T06:08:16.476Z,1010.77
2024-05-09T06:09:16.339Z,1048.03
2024-05-09T06:10:21.496Z,1056.91
2024-05-09T06:11:17.387Z,1043.42
2024-05-09T06:12:16.375Z,1048.09
2024-05-09T06:13:16.272Z,1056.09
2024-05-09T06:14:16.268Z,1065.53
2024-05-09T06:15:16.234Z,1080.42
2024-05-09T06:16:16.269Z,1093.13
2024-05-09T06:17:16.294Z,1101.95
2024-05-09T06:18:16.307Z,1106.85
2024-05-09T06:19:16.309Z,1106.32
2024-05-09T06:20:20.813Z,1107.04
2024-05-09T06:21:20.221Z,1107.72
2024-05-09T06:22:19.121Z,1107.83
2024-05-09T06:23:25.139Z,1107.83
2024-05-09T06:24:16.188Z,1107.83
2024-05-09T06:25:16.090Z,1107.83
2024-05-09T06:26:16.192Z,1107.83
2024-05-09T06:27:16.089Z,1107.83
2024-05-09T06:28:16.130Z,1107.83
2024-05-09T06:29:16.183Z,1107.83
2024-05-09T06:30:25.693Z,1107.83
2024-05-09T06:31:17.022Z,1107.83
2024-05-09T06:32:16.285Z,1107.83
2024-05-09T06:33:16.827Z,1107.82
2024-05-09T06:34:16.250Z,1107.82
2024-05-09T06:35:15.954Z,1107.83
2024-05-09T06:36:15.923Z,1107.82
2024-05-09T06:37:15.923Z,1107.83
2024-05-09T06:38:15.950Z,1107.82
2024-05-09T06:39:15.957Z,1107.82
2024-05-09T06:40:21.377Z,1107.83
2024-05-09T06:41:19.901Z,1107.82
2024-05-09T06:42:18.906Z,1107.82
2024-05-09T06:43:17.906Z,1107.82
2024-05-09T06:44:15.917Z,1107.82
2024-05-09T06:45:15.877Z,1107.82
2024-05-09T06:46:15.839Z,1107.82
2024-05-09T06:47:15.888Z,1107.82
2024-05-09T06:48:15.949Z,1107.82
2024-05-09T06:49:15.926Z,1107.82
2024-05-09T06:50:23.390Z,1107.82
2024-05-09T06:51:16.920Z,1107.82
2024-05-09T06:52:15.713Z,1107.82
2024-05-09T06:53:15.857Z,1107.82
2024-05-09T06:54:15.693Z,1107.82
2024-05-09T06:55:15.685Z,1107.82
2024-05-09T06:56:15.770Z,1107.82
2024-05-09T06:57:15.680Z,1107.82
2024-05-09T06:58:15.711Z,1107.82
2024-05-09T06:59:15.678Z,1107.82
2024-05-09T07:00:22.952Z,1107.82
2024-05-09T07:01:19.664Z,1107.82
2024-05-09T07:02:18.674Z,1107.82
2024-05-09T07:03:17.762Z,1107.82
2024-05-09T07:04:15.850Z,1107.82
2024-05-09T07:05:15.883Z,1107.82
2024-05-09T07:06:15.623Z,1107.82
2024-05-09T07:07:15.547Z,1107.82
2024-05-09T07:08:15.730Z,1107.82
2024-05-09T07:09:15.563Z,1107.82
2024-05-09T07:10:22.025Z,1107.82
2024-05-09T07:11:16.577Z,1107.82
2024-05-09T07:12:15.561Z,1107.83
2024-05-09T07:13:15.934Z,1107.82
2024-05-09T07:14:15.478Z,1107.82
2024-05-09T07:15:15.429Z,1107.83
2024-05-09T07:16:15.470Z,1107.83
2024-05-09T07:17:15.620Z,1107.83
2024-05-09T07:18:17.114Z,1107.82
2024-05-09T07:19:15.605Z,1107.82
2024-05-09T07:20:23.160Z,1107.82
2024-05-09T07:21:19.554Z,1107.83
2024-05-09T07:22:18.309Z,1107.83
2024-05-09T07:23:15.736Z,1107.83
2024-05-09T07:24:15.305Z,1107.83
2024-05-09T07:25:15.270Z,1107.83
2024-05-09T07:26:15.387Z,1107.83
2024-05-09T07:27:15.305Z,1107.83
2024-05-09T07:28:15.261Z,1107.83
2024-05-09T07:29:15.305Z,1107.83
2024-05-09T07:30:22.929Z,1107.83
2024-05-09T07:31:16.189Z,1107.83
2024-05-09T07:32:15.389Z,1107.83
2024-05-09T07:33:15.549Z,1107.83
2024-05-09T07:34:15.460Z,1107.83
2024-05-09T07:35:15.200Z,1107.83
2024-05-09T07:36:15.146Z,1107.83
2024-05-09T07:37:15.123Z,1107.83
2024-05-09T07:38:15.203Z,1107.83
2024-05-09T07:39:15.170Z,1107.83
2024-05-09T07:40:24.501Z,1107.83
2024-05-09T07:41:19.148Z,1107.83
2024-05-09T07:42:18.055Z,1107.83
2024-05-09T07:43:15.255Z,1107.83
2024-05-09T07:44:15.094Z,1107.83
2024-05-09T07:45:30.104Z,1107.83
2024-05-09T07:47:14.182Z,1107.83
2024-05-09T07:48:28.901Z,1107.83
2024-05-09T07:49:45.406Z,1107.83
2024-05-09T07:50:55.976Z,1107.83
2024-05-09T07:53:29.791Z,1107.69
2024-05-09T07:53:37.850Z,1107.83
2024-05-09T07:54:16.075Z,1106.74
2024-05-09T07:55:15.102Z,1107.83
2024-05-09T07:56:15.557Z,1107.83
2024-05-09T07:57:14.998Z,1107.83
2024-05-09T07:58:14.854Z,1107.83
2024-05-09T07:59:14.878Z,1107.83
2024-05-09T08:00:20.252Z,1107.83
2024-05-09T08:01:19.147Z,1107.83
2024-05-09T08:02:17.881Z,1107.83
2024-05-09T08:03:14.916Z,1107.83
2024-05-09T08:04:14.965Z,1107.68
2024-05-09T08:05:14.963Z,1106.62
2024-05-09T08:06:14.917Z,1107.24
2024-05-09T08:07:15.085Z,1107.83
2024-05-09T08:08:14.695Z,1107.83
2024-05-09T08:09:20.539Z,1107.83
2024-05-09T08:10:21.906Z,1107.83
2024-05-09T08:11:15.839Z,1107.83
2024-05-09T08:12:14.640Z,1107.83
2024-05-09T08:13:14.652Z,1107.79
2024-05-09T08:14:14.618Z,1106.19
2024-05-09T08:15:14.592Z,1104.32
2024-05-09T08:16:14.776Z,1103.77
2024-05-09T08:17:14.656Z,1102.76
2024-05-09T08:18:14.668Z,1100.16
2024-05-09T08:19:14.618Z,1101.03
2024-05-09T08:20:22.865Z,1103.47
2024-05-09T08:21:18.550Z,1107.81
2024-05-09T08:22:17.579Z,1107.83
2024-05-09T08:23:14.500Z,1107.83
2024-05-09T08:24:14.464Z,1107.83
2024-05-09T08:25:14.629Z,1107.83
2024-05-09T08:26:14.441Z,1106.64
2024-05-09T08:27:14.424Z,1107.83
2024-05-09T08:28:14.575Z,1107.83
2024-05-09T08:29:14.391Z,1107.83
2024-05-09T08:30:21.784Z,1107.83
2024-05-09T08:31:15.710Z,1107.83
2024-05-09T08:32:14.453Z,1104.68
2024-05-09T08:33:14.519Z,1103.28
2024-05-09T08:34:14.519Z,1107.10
2024-05-09T08:35:14.355Z,1107.83
2024-05-09T08:36:14.314Z,1107.83
2024-05-09T08:37:21.440Z,1107.83
2024-05-09T08:38:15.383Z,1107.83
2024-05-09T08:39:14.287Z,1107.83
2024-05-09T08:40:19.902Z,1107.83
2024-05-09T08:41:18.253Z,1107.83
2024-05-09T08:42:17.216Z,1107.83
2024-05-09T08:43:14.350Z,1106.50
2024-05-09T08:44:14.196Z,1103.16
2024-05-09T08:45:14.178Z,1101.95
2024-05-09T08:46:14.242Z,1097.67
2024-05-09T08:47:14.211Z,1099.95
2024-05-09T08:48:15.680Z,1096.03
2024-05-09T08:49:14.206Z,1098.36
2024-05-09T08:50:24.329Z,1106.27
2024-05-09T08:51:15.333Z,1107.55
2024-05-09T08:52:14.154Z,1106.94
2024-05-09T08:53:14.075Z,1107.83
2024-05-09T08:54:14.065Z,1107.10
2024-05-09T08:55:14.074Z,1100.98
2024-05-09T08:56:14.052Z,1099.28
2024-05-09T08:57:14.017Z,1100.80
2024-05-09T08:58:14.418Z,1099.71
2024-05-09T08:59:13.988Z,1099.24
2024-05-09T09:00:18.131Z,1095.56
2024-05-09T09:01:18.074Z,1086.75
2024-05-09T09:02:17.204Z,1084.56
2024-05-09T09:03:14.060Z,1083.38
2024-05-09T09:04:14.057Z,1085.83
2024-05-09T09:05:14.063Z,1093.69
2024-05-09T09:06:13.939Z,1096.69
2024-05-09T09:07:13.949Z,1095.16
2024-05-09T09:08:13.868Z,1092.76
2024-05-09T09:09:13.855Z,1085.57
2024-05-09T09:10:21.115Z,1088.04
2024-05-09T09:11:14.908Z,1090.09
2024-05-09T09:12:13.827Z,1087.57
2024-05-09T09:13:13.976Z,1092.41
2024-05-09T09:14:13.793Z,1088.03
2024-05-09T09:15:13.804Z,1097.00
2024-05-09T09:16:13.807Z,1099.79
2024-05-09T09:17:13.806Z,1094.90
2024-05-09T09:18:13.896Z,1093.87
2024-05-09T09:19:13.977Z,1102.04
2024-05-09T09:20:16.623Z,1103.00
2024-05-09T09:21:17.781Z,1102.75
2024-05-09T09:22:16.755Z,1100.33
2024-05-09T09:23:13.706Z,1096.05
2024-05-09T09:24:13.657Z,1092.27
2024-05-09T09:25:13.658Z,1097.24
2024-05-09T09:26:13.616Z,1099.87
2024-05-09T09:27:13.682Z,1101.80
2024-05-09T09:28:13.760Z,1093.88
2024-05-09T09:29:13.569Z,1087.82
2024-05-09T09:30:26.867Z,1076.23
2024-05-09T09:31:14.608Z,1067.93
2024-05-09T09:32:13.530Z,1063.42
2024-05-09T09:33:13.805Z,1062.12
2024-05-09T09:34:13.624Z,1078.16
2024-05-09T09:35:13.494Z,1083.59
2024-05-09T09:36:13.521Z,1078.99
2024-05-09T09:37:13.505Z,1078.73
2024-05-09T09:38:13.472Z,1081.44
2024-05-09T09:39:13.508Z,1074.20
2024-05-09T09:40:15.434Z,1065.05
2024-05-09T09:41:16.437Z,1062.73
2024-05-09T09:42:16.416Z,1077.20
2024-05-09T09:43:13.604Z,1080.30
2024-05-09T09:44:13.404Z,1093.59
2024-05-09T09:45:13.424Z,1099.43
2024-05-09T09:46:13.461Z,1090.86
2024-05-09T09:47:13.378Z,1084.68
2024-05-09T09:48:13.396Z,1071.31
2024-05-09T09:49:13.351Z,1062.04
2024-05-09T09:50:17.085Z,1060.73
2024-05-09T09:51:14.307Z,1059.45
2024-05-09T09:52:13.512Z,1076.78
2024-05-09T09:53:13.263Z,1088.98
2024-05-09T09:54:13.231Z,1083.41
2024-05-09T09:55:13.388Z,1078.99
2024-05-09T09:56:13.229Z,1087.99
2024-05-09T09:57:13.210Z,1080.42
2024-05-09T09:58:14.476Z,1074.87
2024-05-09T09:59:13.188Z,1082.64
2024-05-09T10:00:17.406Z,1066.49
2024-05-09T10:01:17.418Z,1050.43
2024-05-09T10:02:16.289Z,1050.17
2024-05-09T10:03:13.376Z,1039.25
2024-05-09T10:04:13.235Z,1041.02
2024-05-09T10:05:13.193Z,1029.11
2024-05-09T10:06:13.105Z,1035.72
2024-05-09T10:07:13.198Z,1032.00
2024-05-09T10:08:13.093Z,1028.49
2024-05-09T10:09:13.030Z,1035.49
2024-05-09T10:10:16.340Z,1050.63
2024-05-09T10:11:14.041Z,1060.40
2024-05-09T10:12:13.079Z,1058.75
2024-05-09T10:13:13.109Z,1046.89
2024-05-09T10:14:13.008Z,1038.49
2024-05-09T10:15:12.961Z,1026.65
2024-05-09T10:16:13.045Z,1006.03
2024-05-09T10:17:12.945Z,1002.61
2024-05-09T10:18:13.259Z,1032.22
2024-05-09T10:19:13.046Z,1038.38
2024-05-09T10:20:21.332Z,1044.58
2024-05-09T10:21:16.903Z,1035.04
2024-05-09T10:22:16.035Z,1021.72
2024-05-09T10:23:12.861Z,1003.85
2024-05-09T10:24:12.845Z,997.47
2024-05-09T10:25:12.871Z,983.51
2024-05-09T10:26:12.872Z,980.33
2024-05-09T10:27:12.799Z,979.12
2024-05-09T10:28:12.891Z,998.73
2024-05-09T10:29:12.756Z,991.04
2024-05-09T10:30:17.893Z,984.26
2024-05-09T10:31:14.197Z,1009.66
2024-05-09T10:32:12.733Z,997.48
2024-05-09T10:33:12.812Z,984.21
2024-05-09T10:34:12.816Z,975.58
2024-05-09T10:35:12.736Z,969.48
2024-05-09T10:36:12.682Z,959.56
2024-05-09T10:37:12.710Z,982.22
2024-05-09T10:38:12.643Z,1004.71
2024-05-09T10:39:12.631Z,1001.90
2024-05-09T10:40:19.904Z,991.04
2024-05-09T10:41:16.649Z,982.83
2024-05-09T10:42:15.584Z,989.97
2024-05-09T10:43:12.644Z,1011.35
2024-05-09T10:44:12.595Z,992.58
2024-05-09T10:45:12.557Z,971.78
2024-05-09T10:46:12.628Z,952.01
2024-05-09T10:47:12.609Z,955.73
2024-05-09T10:48:12.578Z,970.74
2024-05-09T10:49:12.656Z,1000.69
2024-05-09T10:50:22.036Z,1011.34
2024-05-09T10:51:13.553Z,994.81
2024-05-09T10:52:12.504Z,984.34
2024-05-09T10:53:12.443Z,958.75
2024-05-09T10:54:12.433Z,943.59
2024-05-09T10:55:12.498Z,921.95
2024-05-09T10:56:12.409Z,918.92
2024-05-09T10:57:12.434Z,928.44
2024-05-09T10:58:12.576Z,961.20
2024-05-09T10:59:12.366Z,1003.37
2024-05-09T11:00:19.030Z,1003.61
2024-05-09T11:01:16.446Z,1040.06
2024-05-09T11:02:15.490Z,1048.31
2024-05-09T11:03:12.387Z,1048.88
2024-05-09T11:04:12.385Z,1030.20
2024-05-09T11:05:12.509Z,1032.21
2024-05-09T11:06:12.270Z,1028.71
2024-05-09T11:07:12.351Z,1009.90
2024-05-09T11:08:12.276Z,1030.00
2024-05-09T11:09:12.233Z,1015.81
2024-05-09T11:10:14.464Z,1032.98
2024-05-09T11:11:12.227Z,1034.39
2024-05-09T11:12:12.258Z,1022.56
2024-05-09T11:13:12.359Z,1019.18
2024-05-09T11:14:12.224Z,1021.15
2024-05-09T11:15:12.158Z,995.99
2024-05-09T11:16:12.196Z,965.91
2024-05-09T11:17:12.163Z,941.92
2024-05-09T11:18:12.266Z,968.05
2024-05-09T11:19:12.272Z,971.74
2024-05-09T11:20:19.566Z,977.28
2024-05-09T11:21:16.052Z,966.08
2024-05-09T11:22:15.221Z,957.32
2024-05-09T11:23:12.048Z,953.65
2024-05-09T11:24:12.078Z,971.94
2024-05-09T11:25:12.107Z,987.68
2024-05-09T11:26:12.027Z,1005.60
2024-05-09T11:27:11.972Z,1015.43
2024-05-09T11:28:12.096Z,1010.39
2024-05-09T11:29:12.529Z,992.86
2024-05-09T11:30:17.436Z,983.12
2024-05-09T11:31:12.998Z,980.45
2024-05-09T11:32:12.009Z,982.91
2024-05-09T11:33:12.006Z,983.95
2024-05-09T11:34:11.937Z,993.54
2024-05-09T11:35:11.895Z,1008.94
2024-05-09T11:36:11.976Z,1031.66
2024-05-09T11:37:11.877Z,1033.48
2024-05-09T11:38:11.843Z,1004.29
2024-05-09T11:39:11.855Z,1011.02
2024-05-09T11:40:20.722Z,1014.47
2024-05-09T11:41:15.845Z,1008.84
2024-05-09T11:42:14.781Z,984.69
2024-05-09T11:43:11.875Z,968.41
2024-05-09T11:44:11.749Z,941.72
2024-05-09T11:45:11.747Z,920.92
2024-05-09T11:46:11.879Z,914.38
2024-05-09T11:47:11.775Z,915.93
2024-05-09T11:48:11.821Z,904.85
2024-05-09T11:49:11.957Z,896.18
2024-05-09T11:50:19.115Z,913.38
2024-05-09T11:51:12.673Z,928.07
2024-05-09T11:52:11.755Z,934.28
2024-05-09T11:53:11.631Z,915.38
2024-05-09T11:54:11.621Z,910.25
2024-05-09T11:55:11.730Z,931.63
2024-05-09T11:56:11.656Z,953.20
2024-05-09T11:57:11.575Z,936.34
2024-05-09T11:58:11.760Z,939.82
2024-05-09T11:59:11.538Z,916.88
2024-05-09T12:00:17.848Z,925.72
2024-05-09T12:01:15.649Z,946.14
2024-05-09T12:02:14.722Z,955.36
2024-05-09T12:03:11.591Z,947.66
2024-05-09T12:04:11.815Z,928.84
2024-05-09T12:05:11.535Z,911.20
2024-05-09T12:06:11.497Z,901.12
2024-05-09T12:07:12.961Z,887.59
2024-05-09T12:08:11.459Z,878.77
2024-05-09T12:09:11.422Z,879.21
2024-05-09T12:10:16.608Z,885.81